sensor_id;sensor_type;location;lat;lon;timestamp;P1;durP1;ratioP1;P2;durP2;ratioP2
39016;SDS011;24784;45.582;5.276;2023-10-09T00:00:56;18.40;;;6.70;;
39016;SDS011;24784;45.582;5.276;2023-10-09T00:03:39;14.35;;;6.05;;
39016;SDS011;24784;45.582;5.276;2023-10-09T00:06:06;17.05;;;7.03;;
39016;SDS011;24784;45.582;5.276;2023-10-09T00:08:32;15.32;;;6.25;;
39016;SDS011;24784;45.582;5.276;2023-10-09T00:11:00;13.82;;;6.18;;
39016;SDS011;24784;45.582;5.276;2023-10-09T00:13:52;14.45;;;5.97;;
39016;SDS011;24784;45.582;5.276;2023-10-09T00:16:22;11.13;;;5.55;;
39016;SDS011;24784;45.582;5.276;2023-10-09T00:19:06;15.48;;;6.05;;
39016;SDS011;24784;45.582;5.276;2023-10-09T00:21:55;15.80;;;7.03;;
39016;SDS011;24784;45.582;5.276;2023-10-09T00:24:21;15.10;;;6.13;;
39016;SDS011;24784;45.582;5.276;2023-10-09T00:26:55;14.10;;;6.55;;
39016;SDS011;24784;45.582;5.276;2023-10-09T00:29:27;19.20;;;6.10;;
39016;SDS011;24784;45.582;5.276;2023-10-09T00:31:59;13.02;;;6.00;;
39016;SDS011;24784;45.582;5.276;2023-10-09T00:34:41;12.15;;;6.10;;
39016;SDS011;24784;45.582;5.276;2023-10-09T00:37:11;14.68;;;6.75;;
39016;SDS011;24784;45.582;5.276;2023-10-09T00:39:56;14.73;;;6.47;;
39016;SDS011;24784;45.582;5.276;2023-10-09T00:42:25;14.05;;;5.97;;
39016;SDS011;24784;45.582;5.276;2023-10-09T00:45:03;19.17;;;6.47;;
39016;SDS011;24784;45.582;5.276;2023-10-09T00:47:30;14.98;;;6.18;;
39016;SDS011;24784;45.582;5.276;2023-10-09T00:50:03;14.77;;;6.90;;
39016;SDS011;24784;45.582;5.276;2023-10-09T00:52:41;15.25;;;5.82;;
39016;SDS011;24784;45.582;5.276;2023-10-09T00:55:14;13.13;;;7.07;;
39016;SDS011;24784;45.582;5.276;2023-10-09T00:57:47;15.38;;;6.63;;
39016;SDS011;24784;45.582;5.276;2023-10-09T01:00:24;18.38;;;6.65;;
39016;SDS011;24784;45.582;5.276;2023-10-09T01:03:17;16.25;;;6.57;;
39016;SDS011;24784;45.582;5.276;2023-10-09T01:08:23;16.90;;;6.32;;
39016;SDS011;24784;45.582;5.276;2023-10-09T01:11:12;19.42;;;6.60;;
39016;SDS011;24784;45.582;5.276;2023-10-09T01:13:54;17.17;;;7.05;;
39016;SDS011;24784;45.582;5.276;2023-10-09T01:16:36;17.52;;;6.50;;
39016;SDS011;24784;45.582;5.276;2023-10-09T01:19:02;11.93;;;5.68;;
39016;SDS011;24784;45.582;5.276;2023-10-09T01:21:38;17.63;;;6.68;;
39016;SDS011;24784;45.582;5.276;2023-10-09T01:24:07;15.95;;;6.03;;
39016;SDS011;24784;45.582;5.276;2023-10-09T01:26:40;10.30;;;5.70;;
39016;SDS011;24784;45.582;5.276;2023-10-09T01:29:16;14.65;;;6.05;;
39016;SDS011;24784;45.582;5.276;2023-10-09T01:31:50;18.58;;;6.05;;
39016;SDS011;24784;45.582;5.276;2023-10-09T01:34:20;13.95;;;6.28;;
39016;SDS011;24784;45.582;5.276;2023-10-09T01:36:49;14.18;;;7.00;;
39016;SDS011;24784;45.582;5.276;2023-10-09T01:39:25;15.63;;;6.88;;
39016;SDS011;24784;45.582;5.276;2023-10-09T01:41:52;12.10;;;6.18;;
39016;SDS011;24784;45.582;5.276;2023-10-09T01:44:31;16.40;;;6.90;;
39016;SDS011;24784;45.582;5.276;2023-10-09T01:47:04;15.73;;;6.35;;
39016;SDS011;24784;45.582;5.276;2023-10-09T01:49:33;18.42;;;6.68;;
39016;SDS011;24784;45.582;5.276;2023-10-09T01:52:02;12.13;;;6.15;;
39016;SDS011;24784;45.582;5.276;2023-10-09T01:54:40;24.58;;;7.25;;
39016;SDS011;24784;45.582;5.276;2023-10-09T01:57:07;14.85;;;6.10;;
39016;SDS011;24784;45.582;5.276;2023-10-09T01:59:40;18.45;;;7.15;;
39016;SDS011;24784;45.582;5.276;2023-10-09T02:02:13;12.40;;;5.83;;
39016;SDS011;24784;45.582;5.276;2023-10-09T02:04:53;11.15;;;6.05;;
39016;SDS011;24784;45.582;5.276;2023-10-09T02:07:30;11.95;;;5.68;;
39016;SDS011;24784;45.582;5.276;2023-10-09T02:10:05;13.52;;;6.07;;
39016;SDS011;24784;45.582;5.276;2023-10-09T02:12:46;17.15;;;5.97;;
39016;SDS011;24784;45.582;5.276;2023-10-09T02:15:15;18.05;;;7.35;;
39016;SDS011;24784;45.582;5.276;2023-10-09T02:18:01;19.23;;;6.57;;
39016;SDS011;24784;45.582;5.276;2023-10-09T02:20:41;14.30;;;6.25;;
39016;SDS011;24784;45.582;5.276;2023-10-09T02:23:09;13.45;;;6.10;;
39016;SDS011;24784;45.582;5.276;2023-10-09T02:25:38;11.13;;;5.88;;
39016;SDS011;24784;45.582;5.276;2023-10-09T02:28:08;13.00;;;5.60;;
39016;SDS011;24784;45.582;5.276;2023-10-09T02:30:42;12.07;;;5.93;;
39016;SDS011;24784;45.582;5.276;2023-10-09T02:33:15;15.40;;;6.60;;
39016;SDS011;24784;45.582;5.276;2023-10-09T02:35:52;14.50;;;6.57;;
39016;SDS011;24784;45.582;5.276;2023-10-09T02:38:19;12.95;;;6.00;;
39016;SDS011;24784;45.582;5.276;2023-10-09T02:40:50;19.23;;;6.25;;
39016;SDS011;24784;45.582;5.276;2023-10-09T02:43:32;14.82;;;6.57;;
39016;SDS011;24784;45.582;5.276;2023-10-09T02:46:00;15.50;;;6.68;;
39016;SDS011;24784;45.582;5.276;2023-10-09T02:48:39;14.45;;;5.65;;
39016;SDS011;24784;45.582;5.276;2023-10-09T02:51:10;13.27;;;6.00;;
39016;SDS011;24784;45.582;5.276;2023-10-09T02:53:42;15.35;;;6.55;;
39016;SDS011;24784;45.582;5.276;2023-10-09T02:56:08;16.58;;;5.65;;
39016;SDS011;24784;45.582;5.276;2023-10-09T02:58:38;18.75;;;6.50;;
39016;SDS011;24784;45.582;5.276;2023-10-09T03:01:11;15.07;;;6.30;;
39016;SDS011;24784;45.582;5.276;2023-10-09T03:03:39;16.90;;;6.53;;
39016;SDS011;24784;45.582;5.276;2023-10-09T03:06:06;13.30;;;6.75;;
39016;SDS011;24784;45.582;5.276;2023-10-09T03:08:38;13.32;;;6.68;;
39016;SDS011;24784;45.582;5.276;2023-10-09T03:11:06;20.10;;;7.38;;
39016;SDS011;24784;45.582;5.276;2023-10-09T03:13:39;20.13;;;6.63;;
39016;SDS011;24784;45.582;5.276;2023-10-09T03:16:09;15.07;;;7.13;;
39016;SDS011;24784;45.582;5.276;2023-10-09T03:18:53;15.38;;;5.63;;
39016;SDS011;24784;45.582;5.276;2023-10-09T03:21:19;14.02;;;5.47;;
39016;SDS011;24784;45.582;5.276;2023-10-09T03:23:46;16.98;;;6.82;;
39016;SDS011;24784;45.582;5.276;2023-10-09T03:26:18;17.60;;;6.15;;
39016;SDS011;24784;45.582;5.276;2023-10-09T03:28:47;15.70;;;6.03;;
39016;SDS011;24784;45.582;5.276;2023-10-09T03:31:13;18.88;;;7.20;;
39016;SDS011;24784;45.582;5.276;2023-10-09T03:33:39;21.30;;;6.38;;
39016;SDS011;24784;45.582;5.276;2023-10-09T03:36:05;18.33;;;6.28;;
39016;SDS011;24784;45.582;5.276;2023-10-09T03:38:34;11.00;;;6.03;;
39016;SDS011;24784;45.582;5.276;2023-10-09T03:41:02;13.65;;;6.25;;
39016;SDS011;24784;45.582;5.276;2023-10-09T03:43:34;17.20;;;6.07;;
39016;SDS011;24784;45.582;5.276;2023-10-09T03:46:05;15.85;;;6.28;;
39016;SDS011;24784;45.582;5.276;2023-10-09T03:48:49;18.98;;;6.65;;
39016;SDS011;24784;45.582;5.276;2023-10-09T03:51:17;14.80;;;5.97;;
39016;SDS011;24784;45.582;5.276;2023-10-09T03:53:48;15.95;;;6.13;;
39016;SDS011;24784;45.582;5.276;2023-10-09T03:56:16;13.35;;;5.68;;
39016;SDS011;24784;45.582;5.276;2023-10-09T03:58:44;14.02;;;7.13;;
39016;SDS011;24784;45.582;5.276;2023-10-09T04:01:14;12.98;;;6.22;;
39016;SDS011;24784;45.582;5.276;2023-10-09T04:03:57;18.23;;;7.78;;
39016;SDS011;24784;45.582;5.276;2023-10-09T04:06:27;14.95;;;6.72;;
39016;SDS011;24784;45.582;5.276;2023-10-09T04:08:55;12.48;;;5.72;;
39016;SDS011;24784;45.582;5.276;2023-10-09T04:11:23;14.50;;;6.55;;
39016;SDS011;24784;45.582;5.276;2023-10-09T04:13:49;11.50;;;6.30;;
39016;SDS011;24784;45.582;5.276;2023-10-09T04:16:17;13.68;;;6.47;;
39016;SDS011;24784;45.582;5.276;2023-10-09T04:18:58;15.88;;;6.18;;
39016;SDS011;24784;45.582;5.276;2023-10-09T04:21:25;16.38;;;6.40;;
39016;SDS011;24784;45.582;5.276;2023-10-09T04:24:00;17.00;;;6.18;;
39016;SDS011;24784;45.582;5.276;2023-10-09T04:26:42;13.25;;;5.93;;
39016;SDS011;24784;45.582;5.276;2023-10-09T04:31:51;13.38;;;6.68;;
39016;SDS011;24784;45.582;5.276;2023-10-09T04:34:18;18.65;;;6.80;;
39016;SDS011;24784;45.582;5.276;2023-10-09T04:36:48;20.25;;;6.03;;
39016;SDS011;24784;45.582;5.276;2023-10-09T04:39:21;15.02;;;6.00;;
39016;SDS011;24784;45.582;5.276;2023-10-09T04:41:56;13.90;;;6.05;;
39016;SDS011;24784;45.582;5.276;2023-10-09T04:44:41;14.68;;;6.53;;
39016;SDS011;24784;45.582;5.276;2023-10-09T04:47:28;15.02;;;6.43;;
39016;SDS011;24784;45.582;5.276;2023-10-09T04:50:14;14.82;;;6.40;;
39016;SDS011;24784;45.582;5.276;2023-10-09T04:53:00;11.13;;;6.10;;
39016;SDS011;24784;45.582;5.276;2023-10-09T04:55:47;12.55;;;6.30;;
39016;SDS011;24784;45.582;5.276;2023-10-09T04:58:25;13.73;;;6.35;;
39016;SDS011;24784;45.582;5.276;2023-10-09T05:00:51;15.48;;;7.10;;
39016;SDS011;24784;45.582;5.276;2023-10-09T05:03:24;14.15;;;6.78;;
39016;SDS011;24784;45.582;5.276;2023-10-09T05:05:53;12.80;;;6.50;;
39016;SDS011;24784;45.582;5.276;2023-10-09T05:08:27;14.45;;;6.03;;
39016;SDS011;24784;45.582;5.276;2023-10-09T05:10:55;18.65;;;7.18;;
39016;SDS011;24784;45.582;5.276;2023-10-09T05:16:03;13.65;;;5.78;;
39016;SDS011;24784;45.582;5.276;2023-10-09T05:18:41;14.35;;;6.93;;
39016;SDS011;24784;45.582;5.276;2023-10-09T05:21:10;18.38;;;6.28;;
39016;SDS011;24784;45.582;5.276;2023-10-09T05:23:55;11.75;;;6.55;;
39016;SDS011;24784;45.582;5.276;2023-10-09T05:26:38;15.48;;;6.43;;
39016;SDS011;24784;45.582;5.276;2023-10-09T05:29:17;13.45;;;6.57;;
39016;SDS011;24784;45.582;5.276;2023-10-09T05:31:47;15.60;;;7.03;;
39016;SDS011;24784;45.582;5.276;2023-10-09T05:34:27;19.23;;;6.85;;
39016;SDS011;24784;45.582;5.276;2023-10-09T05:36:59;17.83;;;6.35;;
39016;SDS011;24784;45.582;5.276;2023-10-09T05:40:04;15.80;;;7.60;;
39016;SDS011;24784;45.582;5.276;2023-10-09T05:42:43;17.50;;;6.00;;
39016;SDS011;24784;45.582;5.276;2023-10-09T05:45:14;21.98;;;7.20;;
39016;SDS011;24784;45.582;5.276;2023-10-09T05:47:44;17.17;;;6.70;;
39016;SDS011;24784;45.582;5.276;2023-10-09T05:50:31;12.57;;;7.10;;
39016;SDS011;24784;45.582;5.276;2023-10-09T05:53:00;22.55;;;6.68;;
39016;SDS011;24784;45.582;5.276;2023-10-09T05:55:27;21.00;;;6.93;;
39016;SDS011;24784;45.582;5.276;2023-10-09T05:58:12;16.83;;;6.93;;
39016;SDS011;24784;45.582;5.276;2023-10-09T06:00:57;15.07;;;7.10;;
39016;SDS011;24784;45.582;5.276;2023-10-09T06:03:41;19.75;;;7.28;;
39016;SDS011;24784;45.582;5.276;2023-10-09T06:06:37;16.42;;;7.50;;
39016;SDS011;24784;45.582;5.276;2023-10-09T06:09:20;13.85;;;7.05;;
39016;SDS011;24784;45.582;5.276;2023-10-09T06:11:47;11.52;;;5.97;;
39016;SDS011;24784;45.582;5.276;2023-10-09T06:14:13;14.20;;;6.82;;
39016;SDS011;24784;45.582;5.276;2023-10-09T06:16:50;15.20;;;6.47;;
39016;SDS011;24784;45.582;5.276;2023-10-09T06:19:25;17.52;;;7.35;;
39016;SDS011;24784;45.582;5.276;2023-10-09T06:21:53;22.80;;;9.32;;
39016;SDS011;24784;45.582;5.276;2023-10-09T06:24:39;15.38;;;7.20;;
39016;SDS011;24784;45.582;5.276;2023-10-09T06:27:19;13.40;;;6.65;;
39016;SDS011;24784;45.582;5.276;2023-10-09T06:29:55;17.77;;;6.95;;
39016;SDS011;24784;45.582;5.276;2023-10-09T06:32:43;21.58;;;8.85;;
39016;SDS011;24784;45.582;5.276;2023-10-09T06:35:44;17.20;;;7.80;;
39016;SDS011;24784;45.582;5.276;2023-10-09T06:38:18;14.07;;;7.18;;
39016;SDS011;24784;45.582;5.276;2023-10-09T06:40:47;15.43;;;7.40;;
39016;SDS011;24784;45.582;5.276;2023-10-09T06:43:31;12.10;;;6.45;;
39016;SDS011;24784;45.582;5.276;2023-10-09T06:46:01;20.77;;;7.35;;
39016;SDS011;24784;45.582;5.276;2023-10-09T06:48:46;18.02;;;8.25;;
39016;SDS011;24784;45.582;5.276;2023-10-09T06:51:21;15.70;;;7.10;;
39016;SDS011;24784;45.582;5.276;2023-10-09T06:53:56;13.13;;;6.90;;
39016;SDS011;24784;45.582;5.276;2023-10-09T06:56:29;13.10;;;7.22;;
39016;SDS011;24784;45.582;5.276;2023-10-09T06:58:55;15.48;;;7.05;;
39016;SDS011;24784;45.582;5.276;2023-10-09T07:01:23;17.02;;;7.07;;
39016;SDS011;24784;45.582;5.276;2023-10-09T07:03:52;18.88;;;7.25;;
39016;SDS011;24784;45.582;5.276;2023-10-09T07:06:19;22.60;;;7.32;;
39016;SDS011;24784;45.582;5.276;2023-10-09T07:09:01;18.52;;;7.03;;
39016;SDS011;24784;45.582;5.276;2023-10-09T07:16:55;14.98;;;6.88;;
39016;SDS011;24784;45.582;5.276;2023-10-09T07:19:28;16.17;;;8.05;;
39016;SDS011;24784;45.582;5.276;2023-10-09T07:22:00;17.98;;;7.35;;
39016;SDS011;24784;45.582;5.276;2023-10-09T07:24:32;18.38;;;7.03;;
39016;SDS011;24784;45.582;5.276;2023-10-09T07:27:08;16.02;;;6.63;;
39016;SDS011;24784;45.582;5.276;2023-10-09T07:29:38;19.17;;;6.93;;
39016;SDS011;24784;45.582;5.276;2023-10-09T07:32:17;21.40;;;6.95;;
39016;SDS011;24784;45.582;5.276;2023-10-09T07:34:46;19.83;;;6.72;;
39016;SDS011;24784;45.582;5.276;2023-10-09T07:37:27;20.05;;;7.40;;
39016;SDS011;24784;45.582;5.276;2023-10-09T07:39:56;13.75;;;6.45;;
39016;SDS011;24784;45.582;5.276;2023-10-09T07:42:22;16.48;;;7.28;;
39016;SDS011;24784;45.582;5.276;2023-10-09T07:45:08;15.77;;;7.28;;
39016;SDS011;24784;45.582;5.276;2023-10-09T07:47:58;16.00;;;7.07;;
39016;SDS011;24784;45.582;5.276;2023-10-09T07:50:24;19.42;;;7.55;;
39016;SDS011;24784;45.582;5.276;2023-10-09T07:52:55;17.52;;;7.30;;
39016;SDS011;24784;45.582;5.276;2023-10-09T07:58:10;20.25;;;7.35;;
39016;SDS011;24784;45.582;5.276;2023-10-09T08:00:36;16.42;;;7.80;;
39016;SDS011;24784;45.582;5.276;2023-10-09T08:03:22;21.45;;;7.80;;
39016;SDS011;24784;45.582;5.276;2023-10-09T08:05:49;21.15;;;8.13;;
39016;SDS011;24784;45.582;5.276;2023-10-09T08:08:17;18.05;;;7.32;;
39016;SDS011;24784;45.582;5.276;2023-10-09T08:11:03;20.50;;;7.68;;
39016;SDS011;24784;45.582;5.276;2023-10-09T08:13:50;15.52;;;7.43;;
39016;SDS011;24784;45.582;5.276;2023-10-09T08:16:26;15.45;;;8.82;;
39016;SDS011;24784;45.582;5.276;2023-10-09T08:19:02;15.68;;;7.07;;
39016;SDS011;24784;45.582;5.276;2023-10-09T08:21:48;15.20;;;6.30;;
39016;SDS011;24784;45.582;5.276;2023-10-09T08:24:32;22.73;;;6.85;;
39016;SDS011;24784;45.582;5.276;2023-10-09T08:27:06;19.47;;;6.93;;
39016;SDS011;24784;45.582;5.276;2023-10-09T08:29:50;13.48;;;6.35;;
39016;SDS011;24784;45.582;5.276;2023-10-09T08:32:36;17.25;;;6.22;;
39016;SDS011;24784;45.582;5.276;2023-10-09T08:35:07;23.58;;;7.80;;
39016;SDS011;24784;45.582;5.276;2023-10-09T08:37:52;16.23;;;6.13;;
39016;SDS011;24784;45.582;5.276;2023-10-09T08:40:19;12.32;;;6.40;;
39016;SDS011;24784;45.582;5.276;2023-10-09T08:42:49;16.38;;;7.40;;
39016;SDS011;24784;45.582;5.276;2023-10-09T08:45:22;14.70;;;6.20;;
39016;SDS011;24784;45.582;5.276;2023-10-09T08:47:50;19.50;;;7.35;;
39016;SDS011;24784;45.582;5.276;2023-10-09T08:50:19;16.83;;;7.57;;
39016;SDS011;24784;45.582;5.276;2023-10-09T08:52:47;20.75;;;7.07;;
39016;SDS011;24784;45.582;5.276;2023-10-09T08:55:15;19.58;;;7.15;;
39016;SDS011;24784;45.582;5.276;2023-10-09T08:57:44;14.52;;;6.90;;
39016;SDS011;24784;45.582;5.276;2023-10-09T09:00:17;16.95;;;6.60;;
39016;SDS011;24784;45.582;5.276;2023-10-09T09:02:50;17.75;;;6.60;;
39016;SDS011;24784;45.582;5.276;2023-10-09T09:05:18;22.63;;;6.53;;
39016;SDS011;24784;45.582;5.276;2023-10-09T09:07:45;20.27;;;7.35;;
39016;SDS011;24784;45.582;5.276;2023-10-09T09:10:11;15.43;;;6.35;;
39016;SDS011;24784;45.582;5.276;2023-10-09T09:12:45;17.95;;;6.35;;
39016;SDS011;24784;45.582;5.276;2023-10-09T09:15:15;18.98;;;6.95;;
39016;SDS011;24784;45.582;5.276;2023-10-09T09:17:45;19.20;;;6.57;;
39016;SDS011;24784;45.582;5.276;2023-10-09T09:20:18;14.75;;;6.55;;
39016;SDS011;24784;45.582;5.276;2023-10-09T09:22:52;19.42;;;7.32;;
39016;SDS011;24784;45.582;5.276;2023-10-09T09:25:22;19.10;;;6.57;;
39016;SDS011;24784;45.582;5.276;2023-10-09T09:30:28;23.70;;;7.40;;
39016;SDS011;24784;45.582;5.276;2023-10-09T09:32:58;23.08;;;8.07;;
39016;SDS011;24784;45.582;5.276;2023-10-09T09:36:05;22.23;;;7.30;;
39016;SDS011;24784;45.582;5.276;2023-10-09T09:38:32;16.23;;;6.35;;
39016;SDS011;24784;45.582;5.276;2023-10-09T09:41:15;21.35;;;7.63;;
39016;SDS011;24784;45.582;5.276;2023-10-09T09:43:51;22.50;;;6.45;;
39016;SDS011;24784;45.582;5.276;2023-10-09T09:46:21;21.83;;;6.32;;
39016;SDS011;24784;45.582;5.276;2023-10-09T09:49:01;14.93;;;6.15;;
39016;SDS011;24784;45.582;5.276;2023-10-09T09:51:37;21.42;;;6.00;;
39016;SDS011;24784;45.582;5.276;2023-10-09T09:54:03;20.55;;;7.15;;
39016;SDS011;24784;45.582;5.276;2023-10-09T09:56:33;14.73;;;6.07;;
39016;SDS011;24784;45.582;5.276;2023-10-09T09:59:04;14.55;;;5.97;;
39016;SDS011;24784;45.582;5.276;2023-10-09T10:01:32;20.55;;;6.63;;
39016;SDS011;24784;45.582;5.276;2023-10-09T10:04:05;17.23;;;6.47;;
39016;SDS011;24784;45.582;5.276;2023-10-09T10:06:39;27.05;;;7.47;;
39016;SDS011;24784;45.582;5.276;2023-10-09T10:09:09;18.33;;;7.45;;
39016;SDS011;24784;45.582;5.276;2023-10-09T10:14:09;17.63;;;6.78;;
39016;SDS011;24784;45.582;5.276;2023-10-09T10:17:19;21.88;;;6.80;;
39016;SDS011;24784;45.582;5.276;2023-10-09T10:20:18;17.08;;;5.60;;
39016;SDS011;24784;45.582;5.276;2023-10-09T10:22:50;16.98;;;6.05;;
39016;SDS011;24784;45.582;5.276;2023-10-09T10:28:19;15.00;;;6.45;;
39016;SDS011;24784;45.582;5.276;2023-10-09T10:31:07;16.00;;;6.70;;
39016;SDS011;24784;45.582;5.276;2023-10-09T10:36:22;16.52;;;5.55;;
39016;SDS011;24784;45.582;5.276;2023-10-09T10:39:09;17.80;;;6.22;;
39016;SDS011;24784;45.582;5.276;2023-10-09T10:41:52;17.98;;;6.80;;
39016;SDS011;24784;45.582;5.276;2023-10-09T10:44:29;16.02;;;6.43;;
39016;SDS011;24784;45.582;5.276;2023-10-09T10:46:58;16.88;;;6.80;;
39016;SDS011;24784;45.582;5.276;2023-10-09T10:49:26;24.83;;;7.78;;
39016;SDS011;24784;45.582;5.276;2023-10-09T10:52:02;21.45;;;7.45;;
39016;SDS011;24784;45.582;5.276;2023-10-09T10:54:40;18.13;;;7.07;;
39016;SDS011;24784;45.582;5.276;2023-10-09T10:59:54;18.67;;;7.72;;
39016;SDS011;24784;45.582;5.276;2023-10-09T11:02:38;16.05;;;6.68;;
39016;SDS011;24784;45.582;5.276;2023-10-09T11:05:07;22.23;;;7.15;;
39016;SDS011;24784;45.582;5.276;2023-10-09T11:07:51;18.10;;;6.85;;
39016;SDS011;24784;45.582;5.276;2023-10-09T11:10:23;18.65;;;6.95;;
39016;SDS011;24784;45.582;5.276;2023-10-09T11:12:53;18.05;;;6.10;;
39016;SDS011;24784;45.582;5.276;2023-10-09T11:18:10;17.40;;;6.68;;
39016;SDS011;24784;45.582;5.276;2023-10-09T11:20:50;15.70;;;6.30;;
39016;SDS011;24784;45.582;5.276;2023-10-09T11:23:29;11.23;;;5.47;;
39016;SDS011;24784;45.582;5.276;2023-10-09T11:25:58;14.45;;;5.78;;
39016;SDS011;24784;45.582;5.276;2023-10-09T11:28:43;17.05;;;6.63;;
39016;SDS011;24784;45.582;5.276;2023-10-09T11:31:21;18.60;;;6.65;;
39016;SDS011;24784;45.582;5.276;2023-10-09T11:36:16;12.95;;;6.03;;
39016;SDS011;24784;45.582;5.276;2023-10-09T11:38:59;18.02;;;6.18;;
39016;SDS011;24784;45.582;5.276;2023-10-09T11:41:45;18.77;;;7.88;;
39016;SDS011;24784;45.582;5.276;2023-10-09T11:44:14;17.08;;;6.43;;
39016;SDS011;24784;45.582;5.276;2023-10-09T11:46:58;18.80;;;6.30;;
39016;SDS011;24784;45.582;5.276;2023-10-09T11:49:57;17.35;;;6.28;;
39016;SDS011;24784;45.582;5.276;2023-10-09T11:52:26;26.40;;;6.50;;
39016;SDS011;24784;45.582;5.276;2023-10-09T11:55:11;17.13;;;6.82;;
39016;SDS011;24784;45.582;5.276;2023-10-09T11:57:40;20.02;;;5.82;;
39016;SDS011;24784;45.582;5.276;2023-10-09T12:00:06;14.02;;;5.93;;
39016;SDS011;24784;45.582;5.276;2023-10-09T12:02:54;17.33;;;5.35;;
39016;SDS011;24784;45.582;5.276;2023-10-09T12:05:20;16.58;;;6.53;;
39016;SDS011;24784;45.582;5.276;2023-10-09T12:07:52;19.02;;;7.15;;
39016;SDS011;24784;45.582;5.276;2023-10-09T12:10:20;18.75;;;6.07;;
39016;SDS011;24784;45.582;5.276;2023-10-09T12:12:53;16.95;;;5.45;;
39016;SDS011;24784;45.582;5.276;2023-10-09T12:15:23;17.52;;;6.10;;
39016;SDS011;24784;45.582;5.276;2023-10-09T12:17:49;14.60;;;5.88;;
39016;SDS011;24784;45.582;5.276;2023-10-09T12:20:18;18.20;;;5.40;;
39016;SDS011;24784;45.582;5.276;2023-10-09T12:23:00;19.05;;;6.03;;
39016;SDS011;24784;45.582;5.276;2023-10-09T12:27:58;13.25;;;5.68;;
39016;SDS011;24784;45.582;5.276;2023-10-09T12:30:26;16.55;;;5.70;;
39016;SDS011;24784;45.582;5.276;2023-10-09T12:32:54;23.23;;;6.95;;
39016;SDS011;24784;45.582;5.276;2023-10-09T12:35:20;22.13;;;5.85;;
39016;SDS011;24784;45.582;5.276;2023-10-09T12:37:46;25.52;;;6.28;;
39016;SDS011;24784;45.582;5.276;2023-10-09T12:40:12;18.77;;;6.57;;
39016;SDS011;24784;45.582;5.276;2023-10-09T12:42:38;21.60;;;6.05;;
39016;SDS011;24784;45.582;5.276;2023-10-09T12:45:05;20.15;;;5.57;;
39016;SDS011;24784;45.582;5.276;2023-10-09T12:47:34;18.80;;;5.53;;
39016;SDS011;24784;45.582;5.276;2023-10-09T12:50:04;20.95;;;5.60;;
39016;SDS011;24784;45.582;5.276;2023-10-09T12:52:35;18.17;;;6.05;;
39016;SDS011;24784;45.582;5.276;2023-10-09T12:55:02;21.40;;;5.75;;
39016;SDS011;24784;45.582;5.276;2023-10-09T12:57:32;17.58;;;5.38;;
39016;SDS011;24784;45.582;5.276;2023-10-09T12:59:57;24.33;;;5.75;;
39016;SDS011;24784;45.582;5.276;2023-10-09T13:02:23;17.63;;;5.57;;
39016;SDS011;24784;45.582;5.276;2023-10-09T13:04:55;17.15;;;5.88;;
39016;SDS011;24784;45.582;5.276;2023-10-09T13:07:25;18.15;;;5.22;;
39016;SDS011;24784;45.582;5.276;2023-10-09T13:09:50;15.60;;;5.43;;
39016;SDS011;24784;45.582;5.276;2023-10-09T13:12:37;13.30;;;5.13;;
39016;SDS011;24784;45.582;5.276;2023-10-09T13:15:07;20.15;;;4.40;;
39016;SDS011;24784;45.582;5.276;2023-10-09T13:17:37;24.05;;;5.13;;
39016;SDS011;24784;45.582;5.276;2023-10-09T13:20:04;18.45;;;5.55;;
39016;SDS011;24784;45.582;5.276;2023-10-09T13:22:41;26.08;;;5.57;;
39016;SDS011;24784;45.582;5.276;2023-10-09T13:25:08;15.35;;;5.88;;
39016;SDS011;24784;45.582;5.276;2023-10-09T13:27:41;15.18;;;6.50;;
39016;SDS011;24784;45.582;5.276;2023-10-09T13:30:13;14.27;;;4.15;;
39016;SDS011;24784;45.582;5.276;2023-10-09T13:32:47;23.85;;;5.88;;
39016;SDS011;24784;45.582;5.276;2023-10-09T13:35:14;19.50;;;4.70;;
39016;SDS011;24784;45.582;5.276;2023-10-09T13:37:44;21.52;;;5.60;;
39016;SDS011;24784;45.582;5.276;2023-10-09T13:40:19;19.60;;;5.18;;
39016;SDS011;24784;45.582;5.276;2023-10-09T13:42:55;14.95;;;5.57;;
39016;SDS011;24784;45.582;5.276;2023-10-09T13:45:27;17.13;;;4.72;;
39016;SDS011;24784;45.582;5.276;2023-10-09T13:47:56;19.65;;;5.88;;
39016;SDS011;24784;45.582;5.276;2023-10-09T13:50:25;14.70;;;4.70;;
39016;SDS011;24784;45.582;5.276;2023-10-09T13:52:58;17.45;;;4.35;;
39016;SDS011;24784;45.582;5.276;2023-10-09T13:55:24;19.35;;;5.15;;
39016;SDS011;24784;45.582;5.276;2023-10-09T13:57:56;24.25;;;4.78;;
39016;SDS011;24784;45.582;5.276;2023-10-09T14:00:25;24.02;;;5.45;;
39016;SDS011;24784;45.582;5.276;2023-10-09T14:03:07;22.50;;;4.85;;
39016;SDS011;24784;45.582;5.276;2023-10-09T14:05:37;17.48;;;4.57;;
39016;SDS011;24784;45.582;5.276;2023-10-09T14:08:09;17.73;;;5.57;;
39016;SDS011;24784;45.582;5.276;2023-10-09T14:10:38;18.45;;;5.25;;
39016;SDS011;24784;45.582;5.276;2023-10-09T14:13:04;17.10;;;4.97;;
39016;SDS011;24784;45.582;5.276;2023-10-09T14:15:37;15.23;;;4.43;;
39016;SDS011;24784;45.582;5.276;2023-10-09T14:18:06;15.75;;;5.05;;
39016;SDS011;24784;45.582;5.276;2023-10-09T14:20:34;20.45;;;4.07;;
39016;SDS011;24784;45.582;5.276;2023-10-09T14:23:00;21.15;;;5.25;;
39016;SDS011;24784;45.582;5.276;2023-10-09T14:25:38;19.15;;;3.67;;
39016;SDS011;24784;45.582;5.276;2023-10-09T14:28:09;15.13;;;5.05;;
39016;SDS011;24784;45.582;5.276;2023-10-09T14:30:35;26.98;;;5.38;;
39016;SDS011;24784;45.582;5.276;2023-10-09T14:33:08;21.80;;;4.70;;
39016;SDS011;24784;45.582;5.276;2023-10-09T14:35:38;25.10;;;4.35;;
39016;SDS011;24784;45.582;5.276;2023-10-09T14:38:05;18.70;;;6.13;;
39016;SDS011;24784;45.582;5.276;2023-10-09T14:40:40;22.08;;;4.72;;
39016;SDS011;24784;45.582;5.276;2023-10-09T14:43:15;14.80;;;4.45;;
39016;SDS011;24784;45.582;5.276;2023-10-09T14:45:52;20.70;;;5.32;;
39016;SDS011;24784;45.582;5.276;2023-10-09T14:48:19;14.43;;;4.55;;
39016;SDS011;24784;45.582;5.276;2023-10-09T14:50:54;21.92;;;4.88;;
39016;SDS011;24784;45.582;5.276;2023-10-09T14:53:29;15.88;;;4.85;;
39016;SDS011;24784;45.582;5.276;2023-10-09T14:55:55;16.52;;;4.65;;
39016;SDS011;24784;45.582;5.276;2023-10-09T14:58:22;20.08;;;5.10;;
39016;SDS011;24784;45.582;5.276;2023-10-09T15:00:53;20.30;;;5.32;;
39016;SDS011;24784;45.582;5.276;2023-10-09T15:08:13;31.35;;;4.75;;
39016;SDS011;24784;45.582;5.276;2023-10-09T15:10:48;19.17;;;4.78;;
39016;SDS011;24784;45.582;5.276;2023-10-09T15:13:16;24.95;;;5.18;;
39016;SDS011;24784;45.582;5.276;2023-10-09T15:15:43;15.27;;;4.05;;
39016;SDS011;24784;45.582;5.276;2023-10-09T15:18:10;14.98;;;4.40;;
39016;SDS011;24784;45.582;5.276;2023-10-09T15:20:39;16.15;;;4.47;;
39016;SDS011;24784;45.582;5.276;2023-10-09T15:23:06;19.25;;;4.63;;
39016;SDS011;24784;45.582;5.276;2023-10-09T15:25:36;18.42;;;5.28;;
39016;SDS011;24784;45.582;5.276;2023-10-09T15:28:07;15.18;;;4.70;;
39016;SDS011;24784;45.582;5.276;2023-10-09T15:30:34;16.27;;;5.38;;
39016;SDS011;24784;45.582;5.276;2023-10-09T15:33:06;22.77;;;4.80;;
39016;SDS011;24784;45.582;5.276;2023-10-09T15:35:32;22.95;;;4.63;;
39016;SDS011;24784;45.582;5.276;2023-10-09T15:38:01;23.35;;;5.55;;
39016;SDS011;24784;45.582;5.276;2023-10-09T15:40:31;18.35;;;5.03;;
39016;SDS011;24784;45.582;5.276;2023-10-09T15:43:01;15.02;;;5.15;;
39016;SDS011;24784;45.582;5.276;2023-10-09T15:45:29;20.00;;;5.10;;
39016;SDS011;24784;45.582;5.276;2023-10-09T15:47:56;23.73;;;5.45;;
39016;SDS011;24784;45.582;5.276;2023-10-09T15:50:24;22.13;;;6.07;;
39016;SDS011;24784;45.582;5.276;2023-10-09T15:52:54;19.92;;;4.95;;